Time;durP1;ratioP1;P1;durP2;ratioP2;P2;SDS_P1;SDS_P2;PMS_P1;PMS_P2;Temp;Humidity;BMP_temperature;BMP_pressure;BME280_temperature;BME280_humidity;BME280_pressure;Samples;Min_cycle;Max_cycle;Signal;HPM_P1;HPM_P2
2023/08/01 00:01:16;;;;;;;4.93;3.25;;;;;;;16.50;100.00;94914.41;5109536;28;24441;-74
2023/08/01 00:03:42;;;;;;;6.00;3.80;;;;;;;16.51;100.00;94918.66;5109433;28;24449;-74
2023/08/01 00:06:08;;;;;;;4.82;3.20;;;;;;;16.46;100.00;94903.44;5112696;28;24438;-74
2023/08/01 00:08:36;;;;;;;6.30;3.67;;;;;;;16.45;100.00;94909.63;5112470;28;24437;-74
2023/08/01 00:11:03;;;;;;;5.73;3.57;;;;;;;16.40;100.00;94914.50;5101510;28;24444;-74
2023/08/01 00:13:29;;;;;;;4.65;3.35;;;;;;;16.48;100.00;94908.53;5106361;28;24812;-74
2023/08/01 00:15:56;;;;;;;4.22;3.15;;;;;;;16.53;100.00;94894.00;5107908;28;24822;-74
2023/08/01 00:18:22;;;;;;;4.72;3.13;;;;;;;16.47;100.00;94886.78;5112565;28;24441;-74
2023/08/01 00:20:49;;;;;;;4.40;3.50;;;;;;;16.37;100.00;94883.47;5112331;28;24440;-75
2023/08/01 00:23:15;;;;;;;5.03;3.20;;;;;;;16.42;100.00;94889.84;5111454;28;24513;-74
2023/08/01 00:25:43;;;;;;;3.70;3.03;;;;;;;16.40;100.00;94881.34;5108086;28;24431;-74
2023/08/01 00:28:10;;;;;;;4.63;3.38;;;;;;;16.41;100.00;94874.34;5110266;28;24460;-74
2023/08/01 00:30:36;;;;;;;6.78;3.42;;;;;;;16.40;100.00;94876.13;5107735;28;24452;-74
2023/08/01 00:33:03;;;;;;;5.03;3.30;;;;;;;16.44;100.00;94880.06;5106546;28;24430;-74
2023/08/01 00:35:29;;;;;;;5.73;3.50;;;;;;;16.39;100.00;94879.72;5110698;27;24441;-74
2023/08/01 00:37:55;;;;;;;5.03;3.30;;;;;;;16.40;100.00;94875.31;5111798;28;24425;-74
2023/08/01 00:40:21;;;;;;;6.57;3.15;;;;;;;16.45;100.00;94870.44;5107239;28;24437;-74
2023/08/01 00:42:55;;;;;;;6.63;3.60;;;;;;;16.39;100.00;94860.63;5107794;28;24482;-74
2023/08/01 00:45:24;;;;;;;6.10;3.22;;;;;;;16.43;100.00;94862.75;5109670;28;24437;-74
2023/08/01 00:47:51;;;;;;;8.85;3.72;;;;;;;16.44;100.00;94858.34;5111713;28;24549;-75
2023/08/01 00:50:20;;;;;;;4.95;3.50;;;;;;;16.37;100.00;94859.94;5111612;28;24437;-74
2023/08/01 00:52:46;;;;;;;4.63;3.42;;;;;;;16.37;100.00;94863.38;5105918;28;24580;-74
2023/08/01 00:55:13;;;;;;;6.07;3.60;;;;;;;16.34;100.00;94852.41;5111011;28;24604;-74
2023/08/01 00:57:41;;;;;;;5.00;3.57;;;;;;;16.32;100.00;94849.94;5111662;28;24444;-74
2023/08/01 01:00:10;;;;;;;4.80;3.63;;;;;;;16.31;100.00;94858.75;5111201;28;24980;-74
2023/08/01 01:02:37;;;;;;;8.13;3.55;;;;;;;16.28;100.00;94859.06;5107036;28;24429;-75
2023/08/01 01:05:05;;;;;;;4.80;3.40;;;;;;;16.30;100.00;94854.50;5101690;28;24442;-74
2023/08/01 01:07:32;;;;;;;3.97;3.13;;;;;;;16.25;100.00;94863.78;5109212;28;24433;-75
2023/08/01 01:09:58;;;;;;;4.70;3.65;;;;;;;16.28;100.00;94850.38;5108357;28;24440;-74
2023/08/01 01:12:25;;;;;;;7.23;3.43;;;;;;;16.24;100.00;94846.44;5110762;28;24433;-74
2023/08/01 01:14:52;;;;;;;6.40;3.15;;;;;;;16.21;100.00;94844.97;5110046;28;24486;-75
2023/08/01 01:17:20;;;;;;;4.75;3.45;;;;;;;16.16;100.00;94836.75;5105269;28;24438;-75
2023/08/01 01:19:46;;;;;;;4.55;3.22;;;;;;;16.20;100.00;94838.09;5107770;28;25014;-75
2023/08/01 01:22:17;;;;;;;4.40;3.57;;;;;;;16.23;100.00;94824.72;5109400;28;24437;-74
2023/08/01 01:24:44;;;;;;;9.18;4.00;;;;;;;16.14;100.00;94810.00;5107296;28;24450;-74
2023/08/01 01:27:12;;;;;;;5.53;3.72;;;;;;;16.05;100.00;94800.44;5110495;28;24445;-74
2023/08/01 01:29:39;;;;;;;7.15;3.85;;;;;;;16.10;100.00;94800.81;5110952;28;24456;-74
2023/08/01 01:32:07;;;;;;;8.90;3.50;;;;;;;15.98;100.00;94795.00;5110252;28;24521;-74
2023/08/01 01:34:33;;;;;;;9.43;3.63;;;;;;;16.00;100.00;94797.50;5110151;28;24544;-74
2023/08/01 01:37:00;;;;;;;5.35;3.60;;;;;;;15.96;100.00;94781.31;5109996;28;24437;-75
2023/08/01 01:39:27;;;;;;;5.53;3.55;;;;;;;16.01;100.00;94775.63;5110048;28;24436;-74
2023/08/01 01:41:54;;;;;;;5.90;3.78;;;;;;;16.12;100.00;94778.78;5107294;28;24445;-74
2023/08/01 01:44:20;;;;;;;4.82;3.38;;;;;;;16.07;100.00;94773.22;5110320;28;24437;-74
2023/08/01 01:46:49;;;;;;;9.27;3.60;;;;;;;16.10;100.00;94772.91;5110198;28;24462;-75
2023/08/01 01:49:15;;;;;;;8.30;3.45;;;;;;;16.09;100.00;94760.84;5102555;28;24452;-74
2023/08/01 01:51:42;;;;;;;4.80;3.47;;;;;;;16.03;100.00;94761.44;5102491;28;24500;-74
2023/08/01 01:54:08;;;;;;;7.63;3.67;;;;;;;16.02;100.00;94758.97;5105554;28;24438;-74
2023/08/01 01:56:36;;;;;;;5.22;3.92;;;;;;;16.04;100.00;94765.69;5109841;28;24442;-75
2023/08/01 01:59:03;;;;;;;5.38;3.75;;;;;;;16.03;100.00;94756.22;5109317;28;24562;-74
2023/08/01 02:01:29;;;;;;;5.33;3.50;;;;;;;16.02;100.00;94751.13;5109399;28;24819;-74
2023/08/01 02:03:56;;;;;;;5.30;3.47;;;;;;;16.00;100.00;94747.88;5109681;28;24805;-74
2023/08/01 02:06:22;;;;;;;6.10;3.67;;;;;;;15.97;100.00;94755.03;5105002;28;24813;-74
2023/08/01 02:08:48;;;;;;;6.03;3.95;;;;;;;16.00;100.00;94751.28;5110346;28;24829;-74
2023/08/01 02:11:15;;;;;;;5.47;3.78;;;;;;;15.94;100.00;94750.13;5109908;28;24995;-74
2023/08/01 02:13:43;;;;;;;6.18;4.25;;;;;;;15.96;100.00;94752.59;5106900;28;24982;-74
2023/08/01 02:16:09;;;;;;;7.20;3.67;;;;;;;15.91;100.00;94753.06;5108581;28;24977;-74
2023/08/01 02:18:36;;;;;;;7.90;3.70;;;;;;;15.90;100.00;94750.56;5106356;28;24820;-74
2023/08/01 02:21:02;;;;;;;4.93;3.65;;;;;;;15.95;100.00;94756.19;5100478;28;24438;-74
2023/08/01 02:23:28;;;;;;;5.50;3.55;;;;;;;15.93;100.00;94758.09;5109689;28;24441;-74
2023/08/01 02:25:55;;;;;;;5.90;3.80;;;;;;;15.91;100.00;94760.88;5109830;28;24440;-74
2023/08/01 02:28:21;;;;;;;5.03;3.50;;;;;;;15.92;100.00;94759.09;5104662;28;24450;-74
2023/08/01 02:30:50;;;;;;;4.28;3.40;;;;;;;15.90;100.00;94761.03;5104927;28;24438;-74
2023/08/01 02:33:17;;;;;;;5.05;3.45;;;;;;;15.96;100.00;94758.63;5109568;28;24491;-74
2023/08/01 02:35:43;;;;;;;9.23;3.70;;;;;;;15.91;100.00;94747.81;5107751;28;24434;-74
2023/08/01 02:38:09;;;;;;;4.85;3.60;;;;;;;15.95;100.00;94733.50;5107303;28;24444;-74
2023/08/01 02:40:36;;;;;;;5.57;3.53;;;;;;;15.97;100.00;94730.72;5103008;28;24438;-74
2023/08/01 02:43:02;;;;;;;5.37;3.50;;;;;;;15.95;100.00;94727.44;5103747;28;24441;-74
2023/08/01 02:45:29;;;;;;;8.00;3.78;;;;;;;15.92;100.00;94718.13;5105265;28;24445;-74
2023/08/01 02:47:57;;;;;;;6.10;3.58;;;;;;;15.99;100.00;94731.38;5109619;28;24449;-74
2023/08/01 02:50:23;;;;;;;6.50;3.53;;;;;;;16.00;100.00;94733.00;5108382;28;24429;-74
2023/08/01 02:52:49;;;;;;;4.72;3.67;;;;;;;16.02;100.00;94723.25;5114095;28;25003;-74
2023/08/01 02:55:16;;;;;;;5.50;4.03;;;;;;;15.92;100.00;94732.97;5113586;28;25014;-74
2023/08/01 02:57:42;;;;;;;3.80;3.40;;;;;;;15.89;100.00;94728.06;5113971;28;24437;-74
2023/08/01 03:00:11;;;;;;;4.63;3.33;;;;;;;15.79;100.00;94741.19;5106728;28;24433;-74
2023/08/01 03:02:38;;;;;;;7.90;3.90;;;;;;;15.80;100.00;94734.22;5111053;28;24448;-74
2023/08/01 03:05:07;;;;;;;5.90;3.72;;;;;;;15.80;100.00;94732.41;5110685;28;24468;-74
2023/08/01 03:07:34;;;;;;;4.27;3.30;;;;;;;15.82;100.00;94724.41;5113568;28;25070;-74
2023/08/01 03:10:00;;;;;;;5.78;3.75;;;;;;;15.83;100.00;94723.44;5112843;28;24995;-74
2023/08/01 03:12:27;;;;;;;4.60;3.45;;;;;;;15.87;100.00;94724.75;5112434;28;24433;-74
2023/08/01 03:14:54;;;;;;;5.93;3.53;;;;;;;15.83;100.00;94732.09;5110934;28;25048;-74
2023/08/01 03:17:20;;;;;;;8.85;4.18;;;;;;;15.88;100.00;94729.03;5113360;28;25007;-74
2023/08/01 03:19:47;;;;;;;5.18;3.65;;;;;;;15.95;100.00;94737.91;5112946;28;24437;-74
2023/08/01 03:22:14;;;;;;;7.75;3.63;;;;;;;15.97;100.00;94738.53;5109745;28;24430;-74
2023/08/01 03:24:41;;;;;;;3.90;3.50;;;;;;;15.94;100.00;94738.84;5112385;28;24468;-74
2023/08/01 03:27:07;;;;;;;8.07;3.78;;;;;;;15.96;100.00;94731.69;5111166;28;24440;-74
2023/08/01 03:29:34;;;;;;;6.63;3.83;;;;;;;15.99;100.00;94741.84;5110292;28;24449;-74
2023/08/01 03:32:00;;;;;;;6.15;3.80;;;;;;;16.00;100.00;94745.25;5109875;28;24987;-75
2023/08/01 03:34:27;;;;;;;6.72;3.60;;;;;;;16.00;100.00;94738.25;5112938;28;24469;-75
2023/08/01 03:36:54;;;;;;;6.57;3.70;;;;;;;15.98;100.00;94740.16;5108629;28;24465;-74
2023/08/01 03:39:21;;;;;;;7.13;3.75;;;;;;;16.05;100.00;94745.59;5105730;28;24449;-74
2023/08/01 03:41:48;;;;;;;8.75;3.90;;;;;;;16.08;100.00;94753.13;5110248;28;24437;-74
2023/08/01 03:44:15;;;;;;;5.87;3.30;;;;;;;16.00;100.00;94755.72;5112020;27;24446;-74
2023/08/01 03:46:42;;;;;;;5.10;3.47;;;;;;;16.04;100.00;94749.19;5109175;28;25257;-74
2023/08/01 03:49:09;;;;;;;5.43;2.88;;;;;;;16.06;100.00;94753.31;5112668;28;24824;-74
2023/08/01 03:51:35;;;;;;;4.40;3.55;;;;;;;16.01;100.00;94749.50;5110775;28;24487;-74
2023/08/01 03:54:02;;;;;;;5.30;3.17;;;;;;;16.09;100.00;94753.00;5112115;28;24448;-74
2023/08/01 03:56:29;;;;;;;6.45;3.15;;;;;;;16.13;100.00;94736.03;5112405;28;25014;-74
2023/08/01 03:58:56;;;;;;;4.45;3.47;;;;;;;16.18;100.00;94718.09;5111611;28;24453;-74
2023/08/01 04:01:22;;;;;;;4.90;3.22;;;;;;;16.19;100.00;94708.47;5110987;28;25168;-74
2023/08/01 04:03:49;;;;;;;4.40;3.13;;;;;;;16.16;100.00;94686.06;5111710;28;24437;-74
2023/08/01 04:06:15;;;;;;;8.40;3.78;;;;;;;16.17;100.00;94672.06;5107938;28;24442;-74
2023/08/01 04:08:42;;;;;;;6.45;3.53;;;;;;;16.24;100.00;94659.19;5106402;28;24458;-75
2023/08/01 04:11:11;;;;;;;5.97;3.50;;;;;;;16.26;100.00;94643.34;5110743;27;24445;-74
2023/08/01 04:13:39;;;;;;;5.20;3.15;;;;;;;16.37;100.00;94624.75;5105328;28;24445;-74
2023/08/01 04:16:05;;;;;;;5.65;3.42;;;;;;;16.37;100.00;94616.91;5103483;28;24550;-74
2023/08/01 04:18:31;;;;;;;6.07;3.70;;;;;;;16.32;100.00;94591.28;5106529;28;24457;-75
2023/08/01 04:20:58;;;;;;;9.32;3.70;;;;;;;16.29;100.00;94567.28;5109558;28;24452;-74
2023/08/01 04:23:24;;;;;;;6.10;3.75;;;;;;;16.28;100.00;94545.56;5111838;28;24440;-74
2023/08/01 04:25:51;;;;;;;5.05;3.30;;;;;;;16.25;100.00;94526.78;5112259;28;24437;-74
2023/08/01 04:28:17;;;;;;;5.25;3.47;;;;;;;16.32;100.00;94504.25;5110881;28;24442;-74
2023/08/01 04:30:50;;;;;;;5.10;3.33;;;;;;;16.20;100.00;94522.84;5108269;28;24534;-77
2023/08/01 04:33:17;;;;;;;6.10;3.13;;;;;;;16.20;100.00;94520.25;5113528;28;24506;-78
2023/08/01 04:35:43;;;;;;;10.38;3.08;;;;;;;16.17;100.00;94528.38;5112550;28;24437;-78
2023/08/01 04:38:10;;;;;;;5.05;3.17;;;;;;;16.18;100.00;94535.25;5115066;28;24441;-77
2023/08/01 04:40:37;;;;;;;4.72;3.30;;;;;;;16.21;100.00;94529.69;5113245;28;24475;-77
2023/08/01 04:43:03;;;;;;;6.38;3.17;;;;;;;16.18;100.00;94535.25;5113702;28;24434;-78
2023/08/01 04:45:30;;;;;;;7.67;3.27;;;;;;;16.16;100.00;94542.41;5114006;28;24440;-76
2023/08/01 04:47:58;;;;;;;6.40;3.05;;;;;;;16.23;100.00;94557.44;5106606;27;25197;-77
2023/08/01 04:50:24;;;;;;;5.53;3.40;;;;;;;16.17;100.00;94585.03;5110717;27;24503;-77
2023/08/01 04:52:51;;;;;;;4.90;3.58;;;;;;;16.12;100.00;94587.28;5106712;27;24997;-76
2023/08/01 04:55:17;;;;;;;6.13;3.47;;;;;;;16.07;100.00;94590.38;5104087;28;24453;-77
2023/08/01 04:57:44;;;;;;;6.53;3.40;;;;;;;16.08;100.00;94604.25;5100650;27;24441;-77
2023/08/01 05:00:11;;;;;;;5.30;3.55;;;;;;;16.05;100.00;94602.78;5110700;28;24437;-77
2023/08/01 05:02:38;;;;;;;6.43;3.67;;;;;;;16.03;100.00;94609.16;5104872;28;24434;-76
2023/08/01 05:05:07;;;;;;;5.70;3.43;;;;;;;15.98;100.00;94596.53;5103137;28;24452;-76
2023/08/01 05:07:33;;;;;;;6.43;3.40;;;;;;;16.04;100.00;94587.28;5103488;28;24441;-77
2023/08/01 05:10:00;;;;;;;4.88;3.42;;;;;;;15.99;100.00;94579.09;5107246;28;24457;-76
2023/08/01 05:12:26;;;;;;;5.97;3.63;;;;;;;16.00;100.00;94576.31;5109465;28;24475;-76
2023/08/01 05:14:53;;;;;;;6.18;3.22;;;;;;;15.92;100.00;94587.56;5106942;28;24448;-77
2023/08/01 05:17:19;;;;;;;6.80;3.42;;;;;;;15.98;100.00;94596.53;5108452;28;24452;-77
2023/08/01 05:19:46;;;;;;;5.88;3.50;;;;;;;15.97;100.00;94595.72;5109514;28;24421;-77
2023/08/01 05:22:13;;;;;;;6.47;3.72;;;;;;;16.07;100.00;94602.63;5101761;28;24445;-76
2023/08/01 05:24:40;;;;;;;5.83;3.40;;;;;;;16.06;100.00;94599.22;5102245;28;24516;-77
2023/08/01 05:27:07;;;;;;;5.78;3.70;;;;;;;16.16;100.00;94599.88;5110534;28;24456;-77
2023/08/01 05:29:33;;;;;;;6.82;3.53;;;;;;;16.12;100.00;94595.94;5109532;28;24484;-77
2023/08/01 05:32:00;;;;;;;5.28;3.40;;;;;;;16.12;100.00;94585.50;5100605;28;24442;-77
2023/08/01 05:34:26;;;;;;;5.22;3.60;;;;;;;16.21;100.00;94586.34;5098903;28;24437;-76
2023/08/01 05:36:53;;;;;;;7.27;4.00;;;;;;;16.19;100.00;94578.66;5101745;28;24441;-76
2023/08/01 05:39:20;;;;;;;6.55;3.97;;;;;;;16.27;100.00;94570.03;5099319;28;24442;-76
2023/08/01 05:41:47;;;;;;;7.90;3.75;;;;;;;16.26;100.00;94585.88;5109005;28;24430;-76
2023/08/01 05:44:13;;;;;;;6.10;3.85;;;;;;;16.35;100.00;94583.13;5109710;28;24869;-76
2023/08/01 05:46:40;;;;;;;5.70;3.67;;;;;;;16.32;100.00;94595.69;5109529;28;24452;-77
2023/08/01 05:49:06;;;;;;;6.33;3.77;;;;;;;16.29;100.00;94603.84;5102999;28;24434;-77
2023/08/01 05:51:33;;;;;;;8.45;3.90;;;;;;;16.33;100.00;94610.38;5108147;28;24461;-77
2023/08/01 05:53:59;;;;;;;5.93;3.22;;;;;;;16.36;100.00;94604.84;5107007;28;24464;-77
2023/08/01 05:56:27;;;;;;;7.07;3.67;;;;;;;16.43;100.00;94617.09;5111361;28;24460;-77
2023/08/01 05:58:53;;;;;;;7.38;3.63;;;;;;;16.39;100.00;94607.13;5105263;28;24438;-77
2023/08/01 06:01:20;;;;;;;6.07;3.60;;;;;;;16.47;100.00;94609.75;5114159;27;24437;-78
2023/08/01 06:03:47;;;;;;;5.05;3.55;;;;;;;16.53;100.00;94610.91;5109950;28;24444;-73
2023/08/01 06:06:13;;;;;;;6.90;4.15;;;;;;;16.55;100.00;94614.19;5108662;28;24445;-77
2023/08/01 06:08:39;;;;;;;7.00;4.30;;;;;;;16.53;100.00;94609.09;5107859;28;24438;-76
2023/08/01 06:11:06;;;;;;;7.35;4.53;;;;;;;16.41;100.00;94602.56;5107564;28;24453;-76
2023/08/01 06:13:34;;;;;;;5.93;4.07;;;;;;;16.32;100.00;94590.47;5106832;28;24885;-76
2023/08/01 06:16:00;;;;;;;7.10;4.53;;;;;;;16.26;100.00;94596.31;5105019;28;24992;-76
2023/08/01 06:18:27;;;;;;;9.68;4.43;;;;;;;16.24;100.00;94603.47;5106664;28;25043;-76
2023/08/01 06:20:53;;;;;;;5.90;4.45;;;;;;;16.32;100.00;94603.53;5098164;28;24801;-76
2023/08/01 06:23:19;;;;;;;6.32;4.63;;;;;;;16.29;100.00;94611.69;5104058;28;24437;-76
2023/08/01 06:25:46;;;;;;;5.90;4.63;;;;;;;16.24;100.00;94622.63;5106730;28;24496;-76
2023/08/01 06:28:12;;;;;;;8.10;5.22;;;;;;;16.20;100.00;94632.56;5103719;28;24437;-76
2023/08/01 06:30:40;;;;;;;6.38;4.93;;;;;;;16.26;100.00;94632.91;5108105;28;24817;-77
2023/08/01 06:33:07;;;;;;;6.43;4.93;;;;;;;16.21;100.00;94631.56;5104550;28;24504;-77
2023/08/01 06:35:33;;;;;;;7.75;5.00;;;;;;;16.16;100.00;94631.22;5110802;28;24437;-77
2023/08/01 06:38:00;;;;;;;8.67;5.10;;;;;;;16.11;100.00;94624.84;5109056;28;24438;-76
2023/08/01 06:40:26;;;;;;;6.80;5.10;;;;;;;16.03;100.00;94623.03;5110597;28;24995;-76
2023/08/01 06:42:53;;;;;;;6.43;4.93;;;;;;;16.00;100.00;94620.72;5109796;28;24437;-76
2023/08/01 06:45:21;;;;;;;6.00;5.22;;;;;;;16.01;100.00;94621.53;5107506;28;21279;-76
2023/08/01 06:47:49;;;;;;;9.07;5.82;;;;;;;15.99;100.00;94613.88;5109413;28;25034;-76
2023/08/01 06:50:16;;;;;;;7.63;5.65;;;;;;;16.00;100.00;94615.50;5103522;28;24449;-76
2023/08/01 06:52:42;;;;;;;6.65;5.25;;;;;;;15.95;100.00;94621.19;5113077;28;24449;-78
2023/08/01 06:55:09;;;;;;;8.20;6.10;;;;;;;15.97;100.00;94631.47;5114346;28;24533;-78
2023/08/01 06:57:35;;;;;;;7.28;5.78;;;;;;;15.91;100.00;94626.91;5113494;28;24438;-78
2023/08/01 07:00:02;;;;;;;8.10;5.88;;;;;;;15.92;100.00;94624.13;5105740;28;24436;-79
2023/08/01 07:02:28;;;;;;;8.00;6.07;;;;;;;15.82;100.00;94625.22;5106572;28;25063;-79
2023/08/01 07:04:56;;;;;;;5.60;5.10;;;;;;;15.85;100.00;94633.56;5103693;28;24445;-76
2023/08/01 07:07:23;;;;;;;7.28;6.10;;;;;;;15.77;100.00;94624.88;5107323;28;24437;-76
2023/08/01 07:09:49;;;;;;;9.38;5.63;;;;;;;15.77;100.00;94630.91;5109955;28;24456;-79
2023/08/01 07:12:16;;;;;;;7.93;5.55;;;;;;;15.79;100.00;94617.69;5109714;28;24518;-77
2023/08/01 07:14:42;;;;;;;9.90;5.57;;;;;;;15.67;100.00;94631.00;5107924;28;24449;-74
2023/08/01 07:17:09;;;;;;;8.27;5.53;;;;;;;15.60;100.00;94632.56;5102665;28;24481;-75
2023/08/01 07:19:35;;;;;;;8.63;5.05;;;;;;;15.51;100.00;94637.91;5108384;28;25002;-75
2023/08/01 07:22:04;;;;;;;8.18;5.20;;;;;;;15.46;100.00;94639.19;5104146;28;24999;-73
2023/08/01 07:24:30;;;;;;;7.47;5.20;;;;;;;15.40;100.00;94631.16;5105281;28;24430;-73
2023/08/01 07:26:57;;;;;;;7.35;5.18;;;;;;;15.38;100.00;94628.69;5109465;28;24429;-73
2023/08/01 07:29:23;;;;;;;6.00;4.60;;;;;;;15.34;100.00;94635.19;5104199;28;24437;-73
2023/08/01 07:31:49;;;;;;;6.57;4.43;;;;;;;15.34;100.00;94632.56;5104035;28;24449;-73
2023/08/01 07:34:16;;;;;;;8.40;4.57;;;;;;;15.26;100.00;94637.75;5106282;28;24449;-75
2023/08/01 07:36:43;;;;;;;9.80;4.50;;;;;;;15.25;100.00;94636.94;5099774;28;24449;-76
2023/08/01 07:39:10;;;;;;;5.20;4.22;;;;;;;15.20;100.00;94626.16;5113015;27;24452;-74
2023/08/01 07:41:37;;;;;;;6.75;4.03;;;;;;;15.21;100.00;94635.59;5106879;28;24429;-74
2023/08/01 07:44:04;;;;;;;5.18;3.80;;;;;;;15.23;100.00;94632.81;5109376;27;24452;-76
2023/08/01 07:46:30;;;;;;;6.82;3.80;;;;;;;15.24;100.00;94630.09;5113880;27;24433;-74
2023/08/01 07:48:57;;;;;;;4.75;3.70;;;;;;;15.34;100.00;94639.59;5108744;28;24441;-75
2023/08/01 07:51:23;;;;;;;6.60;3.60;;;;;;;15.44;100.00;94633.31;5113415;27;24991;-75
2023/08/01 07:53:52;;;;;;;4.80;3.70;;;;;;;15.45;100.00;94634.94;5108804;27;24444;-75
2023/08/01 07:56:20;;;;;;;4.38;3.50;;;;;;;15.42;100.00;94632.63;5084213;28;24481;-77
2023/08/01 07:58:46;;;;;;;6.82;3.38;;;;;;;15.47;100.00;94630.38;5051842;28;24435;-75
2023/08/01 08:01:13;;;;;;;4.22;3.20;;;;;;;15.54;100.00;94632.38;5051974;28;24989;-75
2023/08/01 08:03:39;;;;;;;5.88;3.15;;;;;;;15.59;100.00;94636.16;5051626;28;24462;-75
2023/08/01 08:06:05;;;;;;;3.40;2.70;;;;;;;15.61;100.00;94642.06;5048983;28;25017;-76
2023/08/01 08:08:33;;;;;;;4.45;2.85;;;;;;;15.53;100.00;94631.53;5051816;28;24538;-76
2023/08/01 08:11:00;;;;;;;3.42;2.63;;;;;;;15.52;100.00;94634.31;5051863;28;24466;-75
2023/08/01 08:13:28;;;;;;;5.47;2.73;;;;;;;15.53;100.00;94628.13;5048537;28;24529;-74
2023/08/01 08:15:56;;;;;;;3.33;2.13;;;;;;;15.48;100.00;94633.81;5047388;28;24440;-73
2023/08/01 08:18:23;;;;;;;2.70;2.35;;;;;;;15.51;100.00;94630.91;5048266;28;24966;-74
2023/08/01 08:20:49;;;;;;;2.37;2.13;;;;;;;15.64;100.00;94641.72;5051469;28;25001;-75
2023/08/01 08:23:16;;;;;;;7.55;2.38;;;;;;;15.75;100.00;94645.91;5043346;28;24440;-72
2023/08/01 08:25:44;;;;;;;2.92;2.60;;;;;;;15.79;100.00;94643.78;5047829;28;24436;-75
2023/08/01 08:28:12;;;;;;;3.45;2.33;;;;;;;15.82;100.00;94635.66;5054421;28;24443;-74
2023/08/01 08:30:40;;;;;;;4.07;2.10;;;;;;;15.79;100.00;94643.78;5051591;28;24447;-74
2023/08/01 08:33:06;;;;;;;3.08;2.00;;;;;;;15.80;100.00;94650.66;5050287;28;24439;-74
2023/08/01 08:35:34;;;;;;;4.47;2.20;;;;;;;15.86;100.00;94650.84;5051896;28;24444;-74
2023/08/01 08:38:02;;;;;;;3.95;2.10;;;;;;;15.89;100.00;94650.53;5049179;28;24496;-74
2023/08/01 08:40:29;;;;;;;2.33;1.48;;;;;;;16.00;100.00;94653.84;5045777;28;24440;-74
2023/08/01 08:42:59;;;;;;;2.88;1.85;;;;;;;16.01;100.00;94650.25;5049782;28;24523;-77
2023/08/01 08:45:26;;;;;;;3.80;1.52;;;;;;;16.05;100.00;94649.78;5051161;28;24438;-77
2023/08/01 08:47:59;;;;;;;1.53;1.40;;;;;;;16.24;100.00;94655.72;5051013;28;25121;-78
2023/08/01 08:50:27;;;;;;;3.97;1.50;;;;;;;16.16;100.00;94651.31;5051252;28;24478;-76
2023/08/01 08:52:54;;;;;;;2.20;1.40;;;;;;;16.15;100.00;94642.66;5043804;28;24466;-76
2023/08/01 08:55:22;;;;;;;1.47;1.10;;;;;;;16.11;100.00;94649.16;5050412;28;24442;-75
2023/08/01 08:57:50;;;;;;;2.17;1.25;;;;;;;16.14;100.00;94651.47;5044888;28;24513;-74
2023/08/01 09:00:18;;;;;;;1.17;1.05;;;;;;;16.14;100.00;94653.28;5049100;28;24431;-75
2023/08/01 09:02:44;;;;;;;1.55;0.93;;;;;;;16.06;100.00;94656.66;5043526;28;24432;-76
2023/08/01 09:05:12;;;;;;;1.38;0.93;;;;;;;16.04;100.00;94649.94;5050146;28;24446;-76
2023/08/01 09:07:43;;;;;;;1.65;1.00;;;;;;;16.18;100.00;94652.78;5047072;28;24985;-76
2023/08/01 09:10:10;;;;;;;1.40;1.10;;;;;;;16.15;100.00;94649.66;5050492;28;24454;-76
2023/08/01 09:12:37;;;;;;;1.60;1.10;;;;;;;16.17;100.00;94652.97;5050578;28;24439;-76
2023/08/01 09:15:05;;;;;;;1.33;0.80;;;;;;;16.13;100.00;94662.91;5038010;28;25008;-76
2023/08/01 09:17:31;;;;;;;1.50;1.00;;;;;;;16.13;100.00;94662.91;5050872;28;24439;-76
2023/08/01 09:20:04;;;;;;;0.85;0.70;;;;;;;16.19;100.00;94666.66;5047918;28;24431;-77
2023/08/01 09:22:42;;;;;;;2.07;0.70;;;;;;;16.25;100.00;94665.22;5050843;28;24415;-76
2023/08/01 09:25:09;;;;;;;1.52;0.77;;;;;;;16.28;100.00;94667.50;5043113;28;24447;-77
2023/08/01 09:27:35;;;;;;;1.90;0.60;;;;;;;16.29;100.00;94679.63;5050490;28;24435;-76
2023/08/01 09:30:07;;;;;;;0.90;0.60;;;;;;;16.39;100.00;94675.09;5050501;28;24439;-77
2023/08/01 09:32:34;;;;;;;1.20;0.63;;;;;;;16.49;100.00;94688.81;5047148;28;24430;-76
2023/08/01 09:35:01;;;;;;;1.23;0.50;;;;;;;16.53;100.00;94684.91;5050119;28;24489;-76
2023/08/01 09:37:27;;;;;;;0.85;0.52;;;;;;;16.52;100.00;94688.50;5050581;28;24427;-77
2023/08/01 09:39:57;;;;;;;1.70;0.50;;;;;;;16.70;100.00;94694.44;5050026;28;24435;-77
2023/08/01 09:42:24;;;;;;;1.10;0.50;;;;;;;16.76;100.00;94692.19;5050269;28;25001;-77
2023/08/01 09:44:50;;;;;;;0.95;0.40;;;;;;;16.83;100.00;94690.56;5049715;28;24446;-77
2023/08/01 09:47:19;;;;;;;0.50;0.40;;;;;;;16.66;100.00;94690.50;5050560;28;24427;-77
2023/08/01 09:49:49;;;;;;;0.45;0.30;;;;;;;16.71;100.00;94687.41;5050479;28;24819;-77
2023/08/01 09:52:16;;;;;;;1.70;0.40;;;;;;;16.66;100.00;94694.91;5050373;28;24478;-77
2023/08/01 09:54:42;;;;;;;1.20;0.40;;;;;;;16.65;100.00;94691.50;5048026;28;24443;-77
2023/08/01 09:57:11;;;;;;;0.50;0.40;;;;;;;16.75;100.00;94691.34;5050243;28;24439;-76
2023/08/01 09:59:38;;;;;;;0.50;0.50;;;;;;;16.80;100.00;94683.06;5047893;28;24435;-77
2023/08/01 10:02:10;;;;;;;1.02;0.60;;;;;;;16.74;100.00;94686.31;5050248;28;24834;-77
2023/08/01 10:04:40;;;;;;;0.40;0.40;;;;;;;16.84;100.00;94676.53;5049157;28;24439;-77
2023/08/01 10:07:12;;;;;;;0.60;0.40;;;;;;;16.84;100.00;94681.75;5043795;28;24438;-77
2023/08/01 10:09:41;;;;;;;1.52;0.40;;;;;;;16.80;100.00;94694.34;5045383;28;24436;-76
2023/08/01 10:12:10;;;;;;;0.40;0.30;;;;;;;16.68;100.00;94704.22;5049999;28;24505;-77
2023/08/01 10:14:37;;;;;;;5.60;2.70;;;;;;;16.56;100.00;94708.13;5044667;28;24443;-77
2023/08/01 10:17:04;;;;;;;1.02;0.40;;;;;;;16.56;100.00;94718.56;5047581;28;24435;-76
2023/08/01 10:19:33;;;;;;;0.80;0.38;;;;;;;16.93;100.00;94722.63;5049020;28;24514;-77
2023/08/01 10:22:01;;;;;;;0.88;0.50;;;;;;;17.01;100.00;94720.00;5047062;28;24472;-76
2023/08/01 10:24:29;;;;;;;0.80;0.45;;;;;;;16.91;100.00;94709.72;5043329;28;25036;-76
2023/08/01 10:26:55;;;;;;;1.30;0.50;;;;;;;17.02;100.00;94716.44;5049791;28;24785;-77
2023/08/01 10:29:35;;;;;;;0.73;0.60;;;;;;;17.13;100.00;94717.91;5043670;28;24442;-77
2023/08/01 10:32:01;;;;;;;0.82;0.68;;;;;;;17.44;100.00;94725.94;5049704;28;24829;-76
2023/08/01 10:34:28;;;;;;;7.80;0.70;;;;;;;17.38;100.00;94735.25;5049275;28;24445;-76
2023/08/01 10:36:55;;;;;;;1.70;0.68;;;;;;;17.70;100.00;94732.81;5041745;28;24431;-77
2023/08/01 10:39:23;;;;;;;0.90;0.50;;;;;;;17.66;100.00;94746.22;5049808;28;24992;-76
2023/08/01 10:41:58;;;;;;;0.90;0.70;;;;;;;17.67;100.00;94747.03;5056243;28;24436;-74
2023/08/01 10:44:26;;;;;;;1.20;0.80;;;;;;;17.78;100.00;94743.31;5045320;28;24444;-74
2023/08/01 10:46:54;;;;;;;1.20;0.83;;;;;;;17.72;100.00;94743.91;5043127;28;24438;-74
2023/08/01 10:49:33;;;;;;;1.88;0.90;;;;;;;17.38;100.00;94742.28;5046274;28;24435;-73
2023/08/01 10:51:59;;;;;;;1.00;0.80;;;;;;;17.00;100.00;94759.41;5047470;28;24452;-74
2023/08/01 10:54:26;;;;;;;0.77;0.67;;;;;;;16.99;100.00;94761.22;5048539;28;24450;-74
2023/08/01 10:56:54;;;;;;;1.55;1.10;;;;;;;17.16;100.00;94757.63;5049143;28;24803;-74
2023/08/01 10:59:22;;;;;;;1.00;0.73;;;;;;;17.31;100.00;94749.16;5049199;28;24443;-74
2023/08/01 11:01:51;;;;;;;1.20;0.90;;;;;;;17.65;100.00;94755.06;5045204;28;24569;-74
2023/08/01 11:04:18;;;;;;;1.17;0.70;;;;;;;18.11;100.00;94752.75;5048359;28;24454;-74
2023/08/01 11:06:46;;;;;;;5.60;1.00;;;;;;;18.33;100.00;94763.50;5047787;28;24814;-74
2023/08/01 11:09:20;;;;;;;3.95;1.00;;;;;;;17.82;100.00;94766.38;5047656;28;24481;-74
2023/08/01 11:11:49;;;;;;;2.63;1.05;;;;;;;17.86;100.00;94762.44;5052542;28;24530;-74
2023/08/01 11:14:16;;;;;;;2.00;1.00;;;;;;;18.03;100.00;94770.28;5052759;28;24454;-74
2023/08/01 11:16:44;;;;;;;1.98;1.00;;;;;;;18.30;100.00;94767.28;5052049;28;24784;-74
2023/08/01 11:19:21;;;;;;;1.40;0.90;;;;;;;18.52;100.00;94778.03;5047270;28;24462;-74
2023/08/01 11:21:47;;;;;;;2.80;1.20;;;;;;;18.63;100.00;94769.78;5046705;28;24817;-73
2023/08/01 11:24:14;;;;;;;1.30;0.80;;;;;;;18.76;100.00;94779.75;5052219;28;24811;-73